createdAt,value
2022-08-16T00:01:33.702Z,100285.47
2022-08-16T00:05:48.224Z,100289.00
2022-08-16T00:10:00.604Z,100301.34
2022-08-16T00:14:37.894Z,100284.03
2022-08-16T00:18:50.350Z,100298.84
2022-08-16T00:23:02.162Z,100290.72
2022-08-16T00:27:14.511Z,100291.16
2022-08-16T00:31:26.320Z,100286.13
2022-08-16T00:35:57.881Z,100310.78
2022-08-16T00:40:34.842Z,100301.56
2022-08-16T00:44:55.244Z,100311.50
2022-08-16T00:49:17.304Z,100293.94
2022-08-16T00:53:31.077Z,100303.69
2022-08-16T00:57:59.981Z,100301.34
2022-08-16T01:02:30.554Z,100294.69
2022-08-16T01:06:49.223Z,100300.06
2022-08-16T01:11:14.028Z,100298.28
2022-08-16T01:15:28.144Z,100304.78
2022-08-16T01:19:46.043Z,100304.28
2022-08-16T01:24:45.324Z,100306.03
2022-08-16T01:28:49.505Z,100310.78
2022-08-16T01:33:15.448Z,100306.03
2022-08-16T01:37:35.877Z,100296.66
2022-08-16T01:41:48.887Z,100307.69
2022-08-16T01:46:30.093Z,100301.81
2022-08-16T01:51:09.052Z,100299.81
2022-08-16T01:55:14.586Z,100284.50
2022-08-16T01:59:29.199Z,100295.31
2022-08-16T02:03:41.948Z,100301.72
2022-08-16T02:07:53.668Z,100297.44
2022-08-16T02:12:49.559Z,100305.94
2022-08-16T02:16:42.872Z,100299.78
2022-08-16T02:20:57.644Z,100291.19
2022-08-16T02:25:15.498Z,100292.50
2022-08-16T02:29:32.059Z,100291.19
2022-08-16T02:33:49.995Z,100283.97
2022-08-16T02:38:13.722Z,100283.81
2022-08-16T02:42:28.773Z,100287.44
2022-08-16T02:46:49.811Z,100287.50
2022-08-16T02:51:10.905Z,100282.16
2022-08-16T02:55:41.170Z,100290.16
2022-08-16T02:59:54.465Z,100276.59
2022-08-16T03:04:39.282Z,100278.78
2022-08-16T03:08:51.916Z,100289.78
2022-08-16T03:13:12.672Z,100274.94
2022-08-16T03:17:32.307Z,100275.19
2022-08-16T03:21:46.738Z,100276.09
2022-08-16T03:26:03.813Z,100272.97
2022-08-16T03:30:20.257Z,100273.56
2022-08-16T03:34:36.532Z,100271.19
2022-08-16T03:38:49.309Z,100284.31
2022-08-16T03:43:20.642Z,100286.03
2022-08-16T03:47:34.913Z,100275.50
2022-08-16T03:51:47.555Z,100273.88
2022-08-16T03:56:07.898Z,100285.91
2022-08-16T04:00:40.901Z,100283.53
2022-08-16T04:04:58.032Z,100292.31
2022-08-16T04:09:12.399Z,100288.28
2022-08-16T04:14:01.097Z,100300.22
2022-08-16T04:17:58.157Z,100307.88
2022-08-16T04:22:11.375Z,100307.06
2022-08-16T04:26:33.040Z,100316.34
2022-08-16T04:30:47.836Z,100328.25
2022-08-16T04:35:09.295Z,100340.28
2022-08-16T04:39:45.694Z,100340.88
2022-08-16T04:43:59.951Z,100343.50
2022-08-16T04:48:11.867Z,100352.16
2022-08-16T04:52:45.379Z,100346.34
2022-08-16T04:56:57.227Z,100354.13
2022-08-16T05:01:09.988Z,100345.34
2022-08-16T05:05:23.661Z,100348.53
2022-08-16T05:09:36.387Z,100351.59
2022-08-16T05:13:50.983Z,100354.41
2022-08-16T05:18:07.778Z,100353.84
2022-08-16T05:22:38.535Z,100364.88
2022-08-16T05:26:53.607Z,100363.19
2022-08-16T05:31:06.706Z,100362.00
2022-08-16T05:35:19.106Z,100364.16
2022-08-16T05:39:55.365Z,100366.13
2022-08-16T05:44:23.661Z,100374.13
2022-08-16T05:48:39.670Z,100366.72
2022-08-16T05:52:56.770Z,100377.06
2022-08-16T05:57:13.317Z,100372.22
2022-08-16T06:01:25.624Z,100371.53
2022-08-16T06:05:41.660Z,100376.81
2022-08-16T06:09:58.288Z,100374.25
2022-08-16T06:14:13.018Z,100373.59
2022-08-16T06:18:28.502Z,100379.94
2022-08-16T06:22:40.712Z,100395.72
2022-08-16T07:22:37.205Z,100416.94
2022-08-16T07:26:48.493Z,100424.22
2022-08-16T07:31:03.073Z,100431.84
2022-08-16T07:35:18.545Z,100426.66
2022-08-16T07:39:33.522Z,100429.38
2022-08-16T07:43:47.504Z,100434.56
2022-08-16T07:48:01.182Z,100443.72
2022-08-16T07:52:29.792Z,100441.31
2022-08-16T07:56:42.818Z,100439.72
2022-08-16T08:00:54.801Z,100450.38
2022-08-16T08:05:07.206Z,100451.06
2022-08-16T08:09:19.476Z,100458.53
2022-08-16T08:13:42.027Z,100460.53
2022-08-16T08:17:56.604Z,100462.38
2022-08-16T08:22:19.394Z,100457.50
2022-08-16T08:26:38.465Z,100462.19
2022-08-16T08:31:02.808Z,100456.81
2022-08-16T08:35:18.824Z,100477.78
2022-08-16T08:39:54.699Z,100469.84
2022-08-16T08:44:28.487Z,100468.41
2022-08-16T08:48:43.729Z,100469.91
2022-08-16T08:52:58.137Z,100462.59
2022-08-16T08:57:10.520Z,100473.69
2022-08-16T09:01:31.616Z,100475.31
2022-08-16T09:05:51.765Z,100477.94
2022-08-16T09:10:20.393Z,100486.72
2022-08-16T09:14:35.163Z,100483.47
2022-08-16T09:18:53.107Z,100470.72
2022-08-16T09:23:09.350Z,100483.03
2022-08-16T09:27:29.639Z,100487.44
2022-08-16T09:32:01.782Z,100486.16
2022-08-16T09:36:32.875Z,100484.94
2022-08-16T09:40:47.087Z,100482.56
2022-08-16T09:45:12.114Z,100484.22
2022-08-16T09:49:37.131Z,100479.69
2022-08-16T09:53:53.845Z,100487.16
2022-08-16T09:58:06.806Z,100491.03
2022-08-16T10:02:27.588Z,100500.56
2022-08-16T10:06:39.933Z,100491.19
2022-08-16T10:11:24.678Z,100488.72
2022-08-16T10:15:37.039Z,100493.00
2022-08-16T10:19:51.593Z,100491.03
2022-08-16T10:24:03.462Z,100495.03
2022-08-16T10:28:29.071Z,100489.53
2022-08-16T10:32:42.129Z,100499.31
2022-08-16T10:36:54.333Z,100499.44
2022-08-16T10:41:07.571Z,100490.94
2022-08-16T10:45:19.402Z,100505.50
2022-08-16T10:49:31.170Z,100502.66
2022-08-16T10:53:45.771Z,100496.09
2022-08-16T10:57:58.192Z,100500.47
2022-08-16T11:02:59.635Z,100498.28
2022-08-16T11:07:06.554Z,100499.00
2022-08-16T11:11:19.767Z,100506.16
2022-08-16T11:15:31.673Z,100491.00
2022-08-16T11:20:40.626Z,100508.97
2022-08-16T11:24:41.409Z,100510.78
2022-08-16T11:33:52.033Z,100509.91
2022-08-16T11:38:46.540Z,100513.66
2022-08-16T11:42:37.059Z,100524.22
2022-08-16T11:46:49.234Z,100505.97
2022-08-16T11:51:01.485Z,100525.75
2022-08-16T11:55:13.572Z,100533.38
2022-08-16T11:59:29.207Z,100534.22
2022-08-16T12:03:41.686Z,100545.06
2022-08-16T12:07:55.462Z,100531.59
2022-08-16T12:12:07.749Z,100540.94
2022-08-16T12:16:20.751Z,100526.38
2022-08-16T12:20:35.637Z,100534.59
2022-08-16T12:24:51.985Z,100543.53
2022-08-16T12:29:04.269Z,100544.63
2022-08-16T12:33:25.278Z,100538.28
2022-08-16T12:37:38.788Z,100541.22
2022-08-16T12:41:52.827Z,100545.22
2022-08-16T12:46:04.553Z,100548.03
2022-08-16T12:50:20.340Z,100545.19
2022-08-16T12:54:31.930Z,100556.22
2022-08-16T12:58:50.221Z,100551.00
2022-08-16T13:03:04.672Z,100542.69
2022-08-16T13:07:19.600Z,100554.34
2022-08-16T13:11:49.133Z,100543.19
2022-08-16T13:16:15.489Z,100534.03
2022-08-16T13:36:47.866Z,100536.91
2022-08-16T13:40:57.431Z,100535.16
2022-08-16T13:45:10.879Z,100553.94
2022-08-16T13:49:43.394Z,100537.13
2022-08-16T13:54:02.717Z,100524.56
2022-08-16T14:00:03.678Z,100536.19
2022-08-16T14:35:09.968Z,100550.75
2022-08-16T14:52:55.067Z,100552.66
2022-08-16T14:58:02.231Z,100536.22
2022-08-16T15:15:30.575Z,100552.56
2022-08-16T15:36:28.135Z,100537.13
2022-08-16T15:40:56.902Z,100540.88
2022-08-16T15:45:12.348Z,100560.56
2022-08-16T15:49:38.094Z,100561.00
2022-08-16T15:54:21.087Z,100563.41
2022-08-16T15:58:35.348Z,100561.69
2022-08-16T16:03:00.493Z,100562.34
2022-08-16T16:07:12.744Z,100570.03
2022-08-16T16:11:25.480Z,100567.75
2022-08-16T16:15:46.402Z,100558.19
2022-08-16T16:19:57.984Z,100564.31
2022-08-16T16:24:21.417Z,100565.88
2022-08-16T16:29:05.990Z,100576.22
2022-08-16T16:33:21.100Z,100576.75
2022-08-16T16:37:34.029Z,100564.66
2022-08-16T16:41:45.801Z,100570.66
2022-08-16T16:45:58.241Z,100573.19
2022-08-16T16:50:12.399Z,100572.66
2022-08-16T16:54:28.259Z,100570.94
2022-08-16T16:59:01.259Z,100572.25
2022-08-16T17:03:17.221Z,100555.88
2022-08-16T17:07:30.884Z,100554.56
2022-08-16T17:11:45.817Z,100576.19
2022-08-16T17:16:08.676Z,100561.94
2022-08-16T17:20:30.882Z,100564.78
2022-08-16T17:29:20.208Z,100555.19
2022-08-16T17:33:36.805Z,100586.03
2022-08-16T17:37:51.394Z,100573.63
2022-08-16T17:39:28.262Z,100573.03
2022-08-16T17:42:12.446Z,100570.47
2022-08-16T17:46:50.649Z,100555.09
2022-08-16T17:50:56.878Z,100579.22
2022-08-16T17:55:14.220Z,100579.28
2022-08-16T17:59:26.001Z,100571.16
2022-08-16T18:04:06.791Z,100564.56
2022-08-16T18:08:13.228Z,100579.09
2022-08-16T18:18:12.451Z,100594.31
2022-08-16T18:22:30.250Z,100596.91
2022-08-16T18:26:42.161Z,100582.50
2022-08-16T18:31:00.342Z,100593.47
2022-08-16T18:35:12.695Z,100602.97
2022-08-16T18:39:24.412Z,100603.31
2022-08-16T18:44:24.039Z,100603.59
2022-08-16T18:48:08.632Z,100605.91
2022-08-16T18:52:25.507Z,100590.84
2022-08-16T18:56:54.365Z,100594.06
2022-08-16T19:01:09.288Z,100600.75
2022-08-16T19:05:26.816Z,100607.19
2022-08-16T19:09:38.595Z,100612.03
2022-08-16T19:13:50.266Z,100613.16
2022-08-16T19:18:02.005Z,100626.59
2022-08-16T19:22:13.597Z,100611.97
2022-08-16T19:26:26.289Z,100630.34
2022-08-16T19:30:39.103Z,100623.81
2022-08-16T19:34:52.084Z,100645.28
2022-08-16T19:39:10.458Z,100639.78
2022-08-16T19:43:22.145Z,100648.13
2022-08-16T19:47:33.812Z,100658.97
2022-08-16T19:51:46.476Z,100657.16
2022-08-16T19:55:58.164Z,100664.84
2022-08-16T20:00:15.370Z,100690.03
2022-08-16T20:04:27.542Z,100690.13
2022-08-16T20:08:39.134Z,100698.91
2022-08-16T20:13:02.158Z,100695.72
2022-08-16T20:17:16.419Z,100696.22
2022-08-16T20:21:49.898Z,100701.72
2022-08-16T20:26:01.527Z,100702.25
2022-08-16T20:30:15.763Z,100713.78
2022-08-16T20:34:27.354Z,100727.56
2022-08-16T20:38:42.575Z,100713.63
2022-08-16T20:43:14.846Z,100723.03
2022-08-16T20:47:26.446Z,100720.97
2022-08-16T20:52:06.961Z,100717.72
2022-08-16T20:56:23.038Z,100710.91
2022-08-16T21:00:34.607Z,100726.00
2022-08-16T21:04:46.189Z,100725.66
2022-08-16T21:08:57.968Z,100740.41
2022-08-16T21:13:12.026Z,100733.09
2022-08-16T21:17:23.574Z,100728.88
2022-08-16T21:21:35.091Z,100720.97
2022-08-16T21:25:58.194Z,100730.00
2022-08-16T21:30:11.389Z,100721.59
2022-08-16T21:34:23.115Z,100718.50
2022-08-16T21:38:35.198Z,100715.59
2022-08-16T21:42:47.067Z,100716.56
2022-08-16T21:46:58.688Z,100707.47
2022-08-16T21:51:13.417Z,100713.09
2022-08-16T21:55:26.362Z,100723.28
2022-08-16T21:59:38.309Z,100712.72
2022-08-16T22:04:36.118Z,100719.16
2022-08-16T22:08:22.872Z,100727.09
2022-08-16T22:12:34.676Z,100716.56
2022-08-16T22:16:47.190Z,100713.50
2022-08-16T22:20:58.839Z,100713.00
2022-08-16T22:25:10.704Z,100719.31
2022-08-16T22:29:22.459Z,100716.22
2022-08-16T22:33:34.104Z,100712.16
2022-08-16T22:38:50.304Z,100721.22
2022-08-16T22:42:18.165Z,100728.81
2022-08-16T22:46:30.390Z,100726.72
2022-08-16T22:50:43.284Z,100713.28
2022-08-16T22:54:54.951Z,100723.78
2022-08-16T22:59:06.647Z,100718.91
2022-08-16T23:03:20.333Z,100722.78
2022-08-16T23:07:31.964Z,100705.78
2022-08-16T23:11:43.632Z,100730.69
2022-08-16T23:16:00.982Z,100720.16
2022-08-16T23:20:13.761Z,100714.16
2022-08-16T23:24:25.444Z,100718.03
2022-08-16T23:28:37.534Z,100719.16
2022-08-16T23:32:53.631Z,100724.75
2022-08-16T23:37:06.051Z,100710.84
2022-08-16T23:41:17.753Z,100712.47
2022-08-16T23:45:39.676Z,100706.28
2022-08-16T23:50:00.234Z,100696.75
2022-08-16T23:54:13.805Z,100689.94
2022-08-16T23:58:38.678Z,100694.78
